Penrose, Utah
Current Conditions -  °F | °C
As of 3:55 PM on Tuesday 21 Oct 2014 (Local Time) from KBMC Reporting Station
Clear Clear  
Wind Chill: 58°   Ceiling: Unl
Heat Index: 58°   Visibility: 10mi
Dew Point: 30°   Wind: 5mph
Humidity: 34%   Direction: 360°N
Pressure: 30.01"   Gusts: NA
Location:  41.6836°N, 112.26°W
Report Text: KBMC 212155Z AUTO 36004KT 10SM CLR 15/M01 A3001 RMK AO1 T01471009
Loading
Personal Weather Stations






























Interactive Weather Map
Tropical Storm Tracking
New forecast layout! Learn more

10-Day Weather Forecast

Advertisements
Track Severe Weather on mobile